createdAt,value
2019-03-27T00:01:26.671Z,11.67
2019-03-27T00:03:55.192Z,21.17
2019-03-27T00:06:23.461Z,19.77
2019-03-27T00:08:51.845Z,15.47
2019-03-27T00:11:20.190Z,19.03
2019-03-27T00:13:48.520Z,14.30
2019-03-27T00:16:16.878Z,19.93
2019-03-27T00:18:45.709Z,20.53
2019-03-27T00:21:13.967Z,21.67
2019-03-27T00:23:42.346Z,21.17
2019-03-27T00:26:10.702Z,22.37
2019-03-27T00:28:39.058Z,16.47
2019-03-27T00:31:07.400Z,16.93
2019-03-27T00:33:35.761Z,16.80
2019-03-27T00:36:04.102Z,20.53
2019-03-27T00:38:32.439Z,19.87
2019-03-27T00:41:00.810Z,16.30
2019-03-27T00:43:29.198Z,20.83
2019-03-27T00:45:57.453Z,17.47
2019-03-27T00:48:25.818Z,19.77
2019-03-27T00:50:54.146Z,12.97
2019-03-27T00:53:22.512Z,12.03
2019-03-27T00:55:50.922Z,14.33
2019-03-27T00:58:20.326Z,15.97
2019-03-27T01:01:05.208Z,18.90
2019-03-27T01:03:33.552Z,17.57
2019-03-27T01:06:01.919Z,12.73
2019-03-27T01:08:30.242Z,12.77
2019-03-27T01:10:58.565Z,14.97
2019-03-27T01:13:26.919Z,17.47
2019-03-27T01:15:55.264Z,18.67
2019-03-27T01:18:23.585Z,22.57
2019-03-27T01:20:51.879Z,20.57
2019-03-27T01:23:20.220Z,16.57
2019-03-27T01:25:49.089Z,16.57
2019-03-27T01:28:17.423Z,16.37
2019-03-27T01:30:46.205Z,22.20
2019-03-27T01:33:14.519Z,13.70
2019-03-27T01:35:42.868Z,23.33
2019-03-27T01:38:11.207Z,19.23
2019-03-27T01:40:39.540Z,16.37
2019-03-27T01:43:07.874Z,21.27
2019-03-27T01:45:36.242Z,14.20
2019-03-27T01:48:04.580Z,20.77
2019-03-27T01:50:32.931Z,20.83
2019-03-27T01:53:01.294Z,22.17
2019-03-27T01:55:29.590Z,21.77
2019-03-27T01:57:57.971Z,18.67
2019-03-27T02:00:26.315Z,22.77
2019-03-27T02:02:54.628Z,19.13
2019-03-27T02:05:22.983Z,20.43
2019-03-27T02:07:51.327Z,22.27
2019-03-27T02:10:19.769Z,22.97
2019-03-27T02:12:48.111Z,19.93
2019-03-27T02:15:16.456Z,15.40
2019-03-27T02:17:44.822Z,19.53
2019-03-27T02:20:13.530Z,22.90
2019-03-27T02:22:41.865Z,23.23
2019-03-27T02:25:10.190Z,20.67
2019-03-27T02:27:38.521Z,26.50
2019-03-27T02:30:07.131Z,22.57
2019-03-27T02:32:35.526Z,18.30
2019-03-27T02:35:04.022Z,18.33
2019-03-27T02:37:32.377Z,20.43
2019-03-27T02:40:00.665Z,19.90
2019-03-27T02:42:28.990Z,18.07
2019-03-27T02:44:57.737Z,19.40
2019-03-27T02:47:26.053Z,20.93
2019-03-27T02:49:55.382Z,22.07
2019-03-27T02:52:23.706Z,16.47
2019-03-27T02:54:52.032Z,21.03
2019-03-27T02:57:20.350Z,27.37
2019-03-27T02:59:50.074Z,21.27
2019-03-27T03:02:18.397Z,12.90
2019-03-27T03:04:46.776Z,17.70
2019-03-27T03:07:15.062Z,16.80
2019-03-27T03:09:43.378Z,21.53
2019-03-27T03:12:11.716Z,19.20
2019-03-27T03:14:40.044Z,21.60
2019-03-27T03:17:08.443Z,23.70
2019-03-27T03:19:36.756Z,24.37
2019-03-27T03:22:05.064Z,18.63
2019-03-27T03:24:33.407Z,19.90
2019-03-27T03:27:01.764Z,18.47
2019-03-27T03:29:30.093Z,25.13
2019-03-27T03:31:58.445Z,19.37
2019-03-27T03:34:26.837Z,18.13
2019-03-27T03:36:55.199Z,23.63
2019-03-27T03:39:23.551Z,25.03
2019-03-27T03:41:52.119Z,23.93
2019-03-27T03:44:20.478Z,24.30
2019-03-27T03:46:59.419Z,23.47
2019-03-27T03:49:18.872Z,25.20
2019-03-27T03:51:47.293Z,22.63
2019-03-27T03:54:15.695Z,18.40
2019-03-27T03:56:44.409Z,23.27
2019-03-27T03:59:13.743Z,27.00
2019-03-27T04:01:43.836Z,22.77
2019-03-27T04:04:13.829Z,24.83
2019-03-27T04:06:42.116Z,20.10
2019-03-27T04:09:10.741Z,26.07
2019-03-27T04:11:39.077Z,19.67
2019-03-27T04:14:07.401Z,23.33
2019-03-27T04:16:35.726Z,24.73
2019-03-27T04:19:04.039Z,19.27
2019-03-27T04:21:32.377Z,18.73
2019-03-27T04:24:00.711Z,21.63
2019-03-27T04:26:33.263Z,21.50
2019-03-27T04:28:59.007Z,23.10
2019-03-27T04:31:27.405Z,18.97
2019-03-27T04:33:55.714Z,16.80
2019-03-27T04:36:24.058Z,20.90
2019-03-27T04:38:52.388Z,23.93
2019-03-27T04:41:20.696Z,20.90
2019-03-27T04:43:49.038Z,22.93
2019-03-27T04:46:17.354Z,20.73
2019-03-27T04:48:45.690Z,23.23
2019-03-27T04:51:14.004Z,19.83
2019-03-27T04:53:42.338Z,21.73
2019-03-27T04:56:10.620Z,23.13
2019-03-27T04:58:38.966Z,24.90
2019-03-27T05:01:07.279Z,23.93
2019-03-27T05:03:35.589Z,22.33
2019-03-27T05:06:05.951Z,21.33
2019-03-27T05:08:34.298Z,27.43
2019-03-27T05:11:02.686Z,26.27
2019-03-27T05:13:31.084Z,20.77
2019-03-27T05:15:59.427Z,21.87
2019-03-27T05:18:27.776Z,19.50
2019-03-27T05:20:56.114Z,25.77
2019-03-27T05:23:24.461Z,23.33
2019-03-27T05:25:52.815Z,18.37
2019-03-27T05:28:21.200Z,19.40
2019-03-27T05:30:49.611Z,16.77
2019-03-27T05:33:17.982Z,27.07
2019-03-27T05:35:46.366Z,18.20
2019-03-27T05:38:17.134Z,28.40
2019-03-27T05:40:45.511Z,21.53
2019-03-27T05:43:13.872Z,25.40
2019-03-27T05:45:42.204Z,22.67
2019-03-27T05:48:10.565Z,24.20
2019-03-27T05:50:38.936Z,21.57
2019-03-27T05:53:07.289Z,22.87
2019-03-27T05:55:36.246Z,24.97
2019-03-27T05:58:04.656Z,24.47
2019-03-27T06:00:33.596Z,22.60
2019-03-27T06:03:02.156Z,25.67
2019-03-27T06:05:30.464Z,24.40
2019-03-27T06:07:58.826Z,26.50
2019-03-27T06:10:28.457Z,27.70
2019-03-27T06:12:56.799Z,22.53
2019-03-27T06:15:25.124Z,27.60
2019-03-27T06:17:53.481Z,25.27
2019-03-27T06:20:21.777Z,23.90
2019-03-27T06:22:52.868Z,22.67
2019-03-27T06:25:40.002Z,23.20
2019-03-27T06:28:10.928Z,31.40
2019-03-27T06:30:39.303Z,28.30
2019-03-27T06:33:10.670Z,28.50
2019-03-27T06:35:39.095Z,26.97
2019-03-27T06:38:07.421Z,31.60
2019-03-27T06:40:39.942Z,30.33
2019-03-27T06:43:09.102Z,29.33
2019-03-27T06:46:13.587Z,31.57
2019-03-27T06:48:41.863Z,27.23
2019-03-27T06:51:14.128Z,31.27
2019-03-27T06:53:45.056Z,27.77
2019-03-27T06:56:13.632Z,29.93
2019-03-27T06:58:54.422Z,25.93
2019-03-27T07:02:05.241Z,29.03
2019-03-27T07:04:37.773Z,33.13
2019-03-27T07:07:06.233Z,26.17
2019-03-27T07:09:34.635Z,22.97
2019-03-27T07:12:03.074Z,22.30
2019-03-27T07:14:31.581Z,24.80
2019-03-27T07:17:00.018Z,21.53
2019-03-27T07:19:28.339Z,28.73
2019-03-27T07:25:07.412Z,25.30
2019-03-27T07:27:35.967Z,21.67
2019-03-27T07:30:04.936Z,28.03
2019-03-27T07:32:33.330Z,24.23
2019-03-27T07:35:01.888Z,29.53
2019-03-27T07:37:30.229Z,21.53
2019-03-27T07:39:58.603Z,21.93
2019-03-27T07:42:28.865Z,25.40
2019-03-27T07:44:56.962Z,20.20
2019-03-27T07:47:25.393Z,18.37
2019-03-27T07:49:53.876Z,21.03
2019-03-27T07:55:31.468Z,20.73
2019-03-27T07:57:59.792Z,18.27
2019-03-27T08:00:28.503Z,17.63
2019-03-27T08:02:56.850Z,19.67
2019-03-27T08:05:25.233Z,17.37
2019-03-27T08:07:53.805Z,17.93
2019-03-27T08:10:22.186Z,15.40
2019-03-27T08:12:50.560Z,17.03
2019-03-27T08:15:20.297Z,27.07
2019-03-27T08:17:49.101Z,18.93
2019-03-27T08:20:17.603Z,15.93
2019-03-27T08:25:55.056Z,12.87
2019-03-27T08:28:23.428Z,17.67
2019-03-27T08:30:51.811Z,14.23
2019-03-27T08:36:17.250Z,18.70
2019-03-27T08:38:45.712Z,14.23
2019-03-27T08:41:14.075Z,15.60
2019-03-27T08:43:42.413Z,15.43
2019-03-27T08:46:10.750Z,16.03
2019-03-27T08:48:39.414Z,16.80
2019-03-27T08:51:08.058Z,11.87
2019-03-27T08:53:36.654Z,14.03
2019-03-27T08:56:05.093Z,10.60
2019-03-27T08:58:35.519Z,11.33
2019-03-27T09:01:04.429Z,14.97
2019-03-27T09:03:34.387Z,10.67
2019-03-27T09:06:02.940Z,15.73
2019-03-27T09:08:31.317Z,12.13
2019-03-27T09:10:59.739Z,14.23
2019-03-27T09:13:30.991Z,12.80
2019-03-27T09:15:59.339Z,15.43
2019-03-27T09:18:30.232Z,15.40
2019-03-27T09:21:04.263Z,12.93
2019-03-27T09:23:32.729Z,15.03
2019-03-27T09:26:01.201Z,12.67
2019-03-27T09:28:29.754Z,18.43
2019-03-27T09:30:58.113Z,14.43
2019-03-27T09:33:26.612Z,11.10
2019-03-27T09:35:55.123Z,11.73
2019-03-27T09:38:23.516Z,8.77
2019-03-27T09:40:54.945Z,8.67
2019-03-27T09:43:23.338Z,10.83
2019-03-27T09:45:51.734Z,8.63
2019-03-27T09:48:20.090Z,11.47
2019-03-27T09:50:48.617Z,10.37
2019-03-27T09:53:16.922Z,11.33
2019-03-27T09:55:45.297Z,7.43
2019-03-27T09:58:13.690Z,8.07
2019-03-27T10:01:10.150Z,6.00
2019-03-27T10:03:38.764Z,7.23
2019-03-27T10:06:07.139Z,11.13
2019-03-27T10:08:36.305Z,12.53
2019-03-27T10:11:05.053Z,9.17
2019-03-27T10:13:33.551Z,7.33
2019-03-27T10:16:02.231Z,10.90
2019-03-27T10:18:30.689Z,10.77
2019-03-27T10:20:59.078Z,7.87
2019-03-27T10:23:27.454Z,12.00
2019-03-27T10:25:55.864Z,8.50
2019-03-27T10:28:24.268Z,9.50
2019-03-27T10:30:52.965Z,6.07
2019-03-27T10:33:24.088Z,10.13
2019-03-27T10:35:52.496Z,10.40
2019-03-27T10:38:20.907Z,8.93
2019-03-27T10:40:49.476Z,10.33
2019-03-27T10:43:17.804Z,8.17
2019-03-27T10:45:46.217Z,8.77
2019-03-27T10:48:16.980Z,9.40
2019-03-27T10:50:45.434Z,7.90
2019-03-27T10:53:14.304Z,4.83
2019-03-27T10:55:42.756Z,6.97
2019-03-27T10:58:11.188Z,7.77
2019-03-27T11:00:39.595Z,8.40
2019-03-27T11:03:07.995Z,6.67
2019-03-27T11:05:36.448Z,6.67
2019-03-27T11:08:04.856Z,5.87
2019-03-27T11:10:33.263Z,6.50
2019-03-27T11:13:01.668Z,7.77
2019-03-27T11:15:29.992Z,9.20
2019-03-27T11:17:58.368Z,9.80
2019-03-27T11:20:31.420Z,13.63
2019-03-27T11:22:57.065Z,10.17
2019-03-27T11:26:09.168Z,10.63
2019-03-27T11:28:37.540Z,7.17
2019-03-27T11:31:06.149Z,9.10
2019-03-27T11:33:34.546Z,8.67
2019-03-27T11:36:03.036Z,8.53
2019-03-27T11:38:31.582Z,11.13
2019-03-27T11:41:00.004Z,6.43
2019-03-27T11:43:28.788Z,13.80
2019-03-27T11:45:57.160Z,11.90
2019-03-27T11:48:25.487Z,6.90
2019-03-27T11:54:03.527Z,8.40
2019-03-27T11:56:31.843Z,9.70
2019-03-27T11:59:00.413Z,12.43
2019-03-27T12:01:39.665Z,11.40
2019-03-27T12:03:59.786Z,11.40
2019-03-27T12:06:28.221Z,13.10
2019-03-27T12:08:56.619Z,10.30
2019-03-27T12:11:25.400Z,10.77
2019-03-27T12:13:53.796Z,13.33
2019-03-27T12:16:22.201Z,11.53
2019-03-27T12:18:50.947Z,12.80
2019-03-27T12:21:19.400Z,12.43
2019-03-27T12:23:47.735Z,11.87
2019-03-27T12:26:16.402Z,10.30
2019-03-27T12:28:45.000Z,8.10
2019-03-27T12:31:13.429Z,10.60
2019-03-27T12:33:41.935Z,8.20
2019-03-27T12:36:10.292Z,6.80
2019-03-27T12:39:15.959Z,8.90
2019-03-27T12:41:44.343Z,9.83
2019-03-27T12:44:12.711Z,7.67
2019-03-27T12:46:41.145Z,8.33
2019-03-27T12:49:09.871Z,10.00
2019-03-27T12:51:38.207Z,10.10
2019-03-27T12:54:09.729Z,10.30
2019-03-27T12:56:38.094Z,9.27
2019-03-27T12:59:06.631Z,8.40
2019-03-27T13:01:35.210Z,7.47
2019-03-27T13:04:03.586Z,9.63
2019-03-27T13:06:31.999Z,8.10
2019-03-27T13:09:00.404Z,6.07
2019-03-27T13:11:28.763Z,6.47
2019-03-27T13:13:57.143Z,6.30
2019-03-27T13:16:25.559Z,7.63
2019-03-27T13:18:53.937Z,7.13
2019-03-27T13:21:26.700Z,9.10
2019-03-27T13:23:52.313Z,10.60
2019-03-27T13:26:20.739Z,8.50
2019-03-27T13:28:49.508Z,12.03
2019-03-27T13:31:18.334Z,11.67
2019-03-27T13:33:49.965Z,12.53
2019-03-27T13:36:16.730Z,9.33
2019-03-27T13:38:45.561Z,17.10
2019-03-27T13:41:13.951Z,9.87
2019-03-27T13:43:54.433Z,10.97
2019-03-27T13:46:22.994Z,10.23
2019-03-27T13:49:14.193Z,12.10
2019-03-27T13:51:42.797Z,9.20
2019-03-27T13:54:11.170Z,15.37
2019-03-27T13:56:45.139Z,10.80
2019-03-27T13:59:14.017Z,10.37
2019-03-27T14:01:42.318Z,9.10
2019-03-27T14:04:10.719Z,10.27
2019-03-27T14:06:39.049Z,10.13
2019-03-27T14:09:08.025Z,8.33
2019-03-27T14:11:36.453Z,7.90
2019-03-27T14:14:11.106Z,7.87
2019-03-27T14:16:34.969Z,7.57
2019-03-27T14:22:12.978Z,9.73
2019-03-27T14:24:41.400Z,11.97
2019-03-27T14:30:50.854Z,6.50
2019-03-27T14:33:19.211Z,7.30
2019-03-27T14:35:47.539Z,7.00
2019-03-27T14:38:18.729Z,8.80
2019-03-27T14:40:47.124Z,7.93
2019-03-27T14:43:15.578Z,8.03
2019-03-27T14:45:43.919Z,6.10
2019-03-27T14:48:12.253Z,6.70
2019-03-27T14:50:40.699Z,5.80
2019-03-27T14:53:15.065Z,6.30
2019-03-27T14:58:52.673Z,6.07
2019-03-27T15:01:21.059Z,5.40
2019-03-27T15:03:49.483Z,6.73
2019-03-27T15:06:17.917Z,5.67
2019-03-27T15:08:46.655Z,6.17
2019-03-27T15:11:15.168Z,5.20
2019-03-27T15:16:53.226Z,5.27
2019-03-27T15:19:21.648Z,8.70
2019-03-27T15:21:50.045Z,5.17
2019-03-27T15:24:20.574Z,5.43
2019-03-27T15:26:48.720Z,4.53
2019-03-27T15:29:19.515Z,5.83
2019-03-27T15:31:47.925Z,9.20
2019-03-27T15:34:16.396Z,4.80
2019-03-27T15:36:44.786Z,5.13
2019-03-27T15:39:13.243Z,7.23
2019-03-27T15:41:41.828Z,5.47
2019-03-27T15:44:10.440Z,6.10
2019-03-27T15:46:38.974Z,6.13
2019-03-27T15:49:07.466Z,5.70
2019-03-27T15:51:51.235Z,5.13
2019-03-27T15:54:32.185Z,5.37
2019-03-27T15:57:06.876Z,4.77
2019-03-27T15:59:35.536Z,4.87
2019-03-27T16:02:04.253Z,4.73
2019-03-27T16:04:32.600Z,4.93
2019-03-27T16:07:01.021Z,5.50
2019-03-27T16:09:53.679Z,5.17
2019-03-27T16:12:22.494Z,7.43
2019-03-27T16:15:09.430Z,8.80
2019-03-27T16:17:37.744Z,9.53
2019-03-27T16:20:06.144Z,7.63
2019-03-27T16:22:35.035Z,7.27
2019-03-27T16:25:03.520Z,7.13
2019-03-27T16:27:31.945Z,7.60
2019-03-27T16:30:00.365Z,8.43
2019-03-27T16:32:28.877Z,8.60
2019-03-27T16:37:53.962Z,8.57
2019-03-27T16:40:43.088Z,10.73
2019-03-27T16:43:14.438Z,9.43
2019-03-27T16:45:42.807Z,8.27
2019-03-27T16:51:23.412Z,11.20
2019-03-27T16:53:51.893Z,9.70
2019-03-27T16:56:20.306Z,9.47
2019-03-27T16:58:48.781Z,10.40
2019-03-27T17:04:38.982Z,12.67
2019-03-27T17:07:09.542Z,10.80
2019-03-27T17:09:38.096Z,10.43
2019-03-27T17:12:06.544Z,11.87
2019-03-27T17:14:34.997Z,9.47
2019-03-27T17:17:06.726Z,12.50
2019-03-27T17:19:35.161Z,9.77
2019-03-27T17:22:03.617Z,9.83
2019-03-27T17:24:32.169Z,11.37
2019-03-27T17:27:00.828Z,10.47
2019-03-27T17:29:32.058Z,12.73
2019-03-27T17:32:03.399Z,10.03
2019-03-27T17:34:33.742Z,10.37
2019-03-27T17:37:02.358Z,14.60
2019-03-27T17:39:30.963Z,16.43
2019-03-27T17:41:59.435Z,10.80
2019-03-27T17:44:28.109Z,10.50
2019-03-27T17:46:59.031Z,8.63
2019-03-27T17:49:29.257Z,9.57
2019-03-27T17:51:57.922Z,11.50
2019-03-27T17:54:29.050Z,8.20
2019-03-27T17:56:59.722Z,7.23
2019-03-27T17:59:34.242Z,7.67
2019-03-27T18:02:04.331Z,13.77
2019-03-27T18:04:32.810Z,21.27
2019-03-27T18:07:01.290Z,15.40
2019-03-27T18:09:34.337Z,17.57
2019-03-27T18:15:28.296Z,9.77
2019-03-27T18:18:47.881Z,10.00
2019-03-27T18:21:24.784Z,9.30
2019-03-27T18:27:07.231Z,9.53
2019-03-27T18:29:35.613Z,10.97
2019-03-27T18:32:04.207Z,12.57
2019-03-27T18:34:51.664Z,15.30
2019-03-27T18:37:23.902Z,17.17
2019-03-27T18:39:52.144Z,16.23
2019-03-27T18:42:21.782Z,17.37
2019-03-27T18:44:50.300Z,15.13
2019-03-27T18:47:31.871Z,15.50
2019-03-27T18:50:00.494Z,14.47
2019-03-27T18:52:28.879Z,17.77
2019-03-27T18:54:57.261Z,11.83
2019-03-27T18:57:28.462Z,16.87
2019-03-27T18:59:56.888Z,12.37
2019-03-27T19:02:25.504Z,12.40
2019-03-27T19:04:53.982Z,18.37
2019-03-27T19:08:18.585Z,12.17
2019-03-27T19:10:46.985Z,12.17
2019-03-27T19:13:15.443Z,13.57
2019-03-27T19:19:05.871Z,18.73
2019-03-27T19:21:51.756Z,14.17
2019-03-27T19:24:20.222Z,14.87
2019-03-27T19:26:48.550Z,12.77
2019-03-27T19:29:16.920Z,12.60
2019-03-27T19:31:45.798Z,15.20
2019-03-27T19:34:14.561Z,14.80
2019-03-27T19:36:42.980Z,14.77
2019-03-27T19:39:11.388Z,18.13
2019-03-27T19:41:39.798Z,18.27
2019-03-27T19:44:08.171Z,15.97
2019-03-27T19:46:36.568Z,15.37
2019-03-27T19:49:04.945Z,19.27
2019-03-27T19:51:33.326Z,14.80
2019-03-27T19:54:01.731Z,15.73
2019-03-27T19:56:30.546Z,15.00
2019-03-27T19:58:59.000Z,14.50
2019-03-27T20:04:49.250Z,12.40
2019-03-27T20:10:39.523Z,16.33
2019-03-27T20:13:08.057Z,14.77
2019-03-27T20:15:36.466Z,14.50
2019-03-27T20:18:05.333Z,12.50
2019-03-27T20:23:56.570Z,12.33
2019-03-27T20:26:25.398Z,18.47
2019-03-27T20:28:53.851Z,14.63
2019-03-27T20:31:22.303Z,17.60
2019-03-27T20:33:50.748Z,22.77
2019-03-27T20:36:19.139Z,17.30
2019-03-27T20:38:47.654Z,15.50
2019-03-27T20:42:00.719Z,14.47
2019-03-27T20:44:29.194Z,19.63
2019-03-27T20:46:57.564Z,19.50
2019-03-27T20:49:25.968Z,16.83
2019-03-27T20:51:55.021Z,21.87
2019-03-27T20:54:23.603Z,18.53
2019-03-27T20:56:52.104Z,23.20
2019-03-27T20:59:20.556Z,20.47
2019-03-27T21:01:48.953Z,21.40
2019-03-27T21:04:19.161Z,19.37
2019-03-27T21:06:47.603Z,18.63
2019-03-27T21:09:16.520Z,20.37
2019-03-27T21:15:23.600Z,19.40
2019-03-27T21:17:51.966Z,21.00
2019-03-27T21:20:20.402Z,21.27
2019-03-27T21:22:48.799Z,19.87
2019-03-27T21:25:17.219Z,24.50
2019-03-27T21:27:45.945Z,21.23
2019-03-27T21:30:14.489Z,17.90
2019-03-27T21:32:42.905Z,21.07
2019-03-27T21:35:11.288Z,21.17
2019-03-27T21:38:06.405Z,21.77
2019-03-27T21:40:34.790Z,21.43
2019-03-27T21:43:27.282Z,23.50
2019-03-27T21:45:55.701Z,20.77
2019-03-27T21:48:24.462Z,23.67
2019-03-27T21:50:52.935Z,21.33
2019-03-27T21:53:21.438Z,22.20
2019-03-27T21:55:50.066Z,21.07
2019-03-27T21:58:18.485Z,22.27
2019-03-27T22:03:56.253Z,24.03
2019-03-27T22:06:24.815Z,20.23
2019-03-27T22:12:15.172Z,18.30
2019-03-27T22:14:43.651Z,19.17
2019-03-27T22:17:12.125Z,24.37
2019-03-27T22:19:40.522Z,22.70
2019-03-27T22:22:08.920Z,25.37
2019-03-27T22:24:37.299Z,21.70
2019-03-27T22:27:05.967Z,23.03
2019-03-27T22:29:34.486Z,24.23
2019-03-27T22:32:02.900Z,27.13
2019-03-27T22:34:31.351Z,21.17
2019-03-27T22:37:02.425Z,22.97
2019-03-27T22:39:30.846Z,25.57
2019-03-27T22:41:59.275Z,19.20
2019-03-27T22:44:27.627Z,24.10
2019-03-27T22:46:56.082Z,22.67
2019-03-27T22:52:46.267Z,26.13
2019-03-27T22:55:14.650Z,23.73
2019-03-27T22:57:43.052Z,22.47
2019-03-27T23:00:11.750Z,20.23
2019-03-27T23:02:40.221Z,22.20
2019-03-27T23:05:08.692Z,19.20
2019-03-27T23:07:37.052Z,22.23
2019-03-27T23:10:06.265Z,21.07
2019-03-27T23:12:34.620Z,25.20
2019-03-27T23:15:03.047Z,21.13
2019-03-27T23:17:31.391Z,21.77
2019-03-27T23:19:59.767Z,21.47
2019-03-27T23:22:28.674Z,17.83
2019-03-27T23:24:57.027Z,22.33
2019-03-27T23:27:25.397Z,20.60
2019-03-27T23:29:53.743Z,24.37
2019-03-27T23:32:22.203Z,21.73
2019-03-27T23:34:50.577Z,15.80
2019-03-27T23:37:21.081Z,17.37
2019-03-27T23:39:49.537Z,24.67
2019-03-27T23:42:17.976Z,20.90
2019-03-27T23:44:46.377Z,21.23
2019-03-27T23:47:14.800Z,21.27
2019-03-27T23:49:43.315Z,22.40
2019-03-27T23:52:11.765Z,22.97
2019-03-27T23:54:40.089Z,19.17
2019-03-27T23:57:08.553Z,25.83
2019-03-27T23:59:36.949Z,21.60
